createdAt,value
2023-04-30T00:00:42.750Z,4.60
2023-04-30T00:03:09.519Z,4.50
2023-04-30T00:05:36.258Z,4.40
2023-04-30T00:08:04.043Z,4.40
2023-04-30T00:10:30.720Z,4.30
2023-04-30T00:12:57.321Z,4.20
2023-04-30T00:15:23.925Z,4.20
2023-04-30T00:17:50.607Z,4.10
2023-04-30T00:20:17.784Z,4.10
2023-04-30T00:22:44.370Z,4.00
2023-04-30T00:25:11.234Z,3.90
2023-04-30T00:27:40.125Z,3.90
2023-04-30T00:30:08.285Z,3.80
2023-04-30T00:32:35.514Z,4.00
2023-04-30T00:35:02.888Z,4.10
2023-04-30T00:37:29.572Z,3.90
2023-04-30T00:39:56.667Z,3.80
2023-04-30T00:42:24.014Z,3.60
2023-04-30T00:44:51.615Z,3.60
2023-04-30T00:47:18.487Z,3.50
2023-04-30T00:49:45.517Z,3.70
2023-04-30T00:52:12.864Z,3.70
2023-04-30T00:54:39.648Z,3.60
2023-04-30T00:57:09.422Z,3.60
2023-04-30T00:59:36.408Z,3.70
2023-04-30T01:02:03.473Z,3.60
2023-04-30T01:04:30.387Z,3.50
2023-04-30T01:06:57.112Z,3.40
2023-04-30T01:09:23.868Z,3.40
2023-04-30T01:12:13.600Z,3.40
2023-04-30T01:15:04.159Z,3.20
2023-04-30T01:17:41.651Z,3.10
2023-04-30T01:20:11.196Z,3.10
2023-04-30T01:23:01.978Z,3.00
2023-04-30T01:25:34.115Z,3.00
2023-04-30T01:28:16.867Z,3.00
2023-04-30T01:30:46.976Z,3.10
2023-04-30T01:33:14.111Z,3.10
2023-04-30T01:35:49.341Z,3.00
2023-04-30T01:38:46.726Z,2.90
2023-04-30T01:41:30.022Z,2.90
2023-04-30T01:44:24.052Z,2.90
2023-04-30T01:47:02.700Z,3.00
2023-04-30T01:49:37.904Z,2.90
2023-04-30T01:52:17.902Z,2.80
2023-04-30T01:55:05.569Z,2.70
2023-04-30T01:57:42.605Z,2.70
2023-04-30T02:00:11.522Z,2.80
2023-04-30T02:02:41.631Z,2.80
2023-04-30T02:05:08.677Z,2.80
2023-04-30T02:07:44.106Z,2.70
2023-04-30T02:10:14.501Z,2.70
2023-04-30T02:12:41.510Z,2.60
2023-04-30T02:15:08.896Z,2.60
2023-04-30T02:17:35.955Z,2.70
2023-04-30T02:20:03.347Z,2.60
2023-04-30T02:22:30.372Z,2.70
2023-04-30T02:24:57.313Z,2.50
2023-04-30T02:27:25.965Z,2.50
2023-04-30T02:29:53.403Z,2.50
2023-04-30T02:32:20.747Z,2.50
2023-04-30T02:34:47.801Z,2.50
2023-04-30T02:37:14.627Z,2.50
2023-04-30T02:39:41.465Z,2.50
2023-04-30T02:42:08.224Z,2.60
2023-04-30T02:44:35.434Z,2.50
2023-04-30T02:47:02.728Z,2.50
2023-04-30T02:49:29.960Z,2.40
2023-04-30T02:51:56.544Z,2.40
2023-04-30T02:54:23.251Z,2.30
2023-04-30T02:56:49.886Z,2.50
2023-04-30T02:59:16.588Z,2.50
2023-04-30T03:01:43.261Z,2.60
2023-04-30T03:04:10.058Z,2.60
2023-04-30T03:06:37.083Z,2.50
2023-04-30T03:09:04.028Z,2.30
2023-04-30T03:11:30.735Z,2.20
2023-04-30T03:13:57.712Z,2.20
2023-04-30T03:16:24.395Z,2.00
2023-04-30T03:18:51.103Z,2.00
2023-04-30T03:21:18.809Z,2.00
2023-04-30T03:23:46.109Z,2.00
2023-04-30T03:26:12.697Z,1.90
2023-04-30T03:28:39.325Z,1.90
2023-04-30T03:31:06.280Z,1.90
2023-04-30T03:33:33.227Z,1.90
2023-04-30T03:36:00.002Z,1.90
2023-04-30T03:38:26.734Z,1.90
2023-04-30T03:40:53.346Z,1.80
2023-04-30T03:43:20.200Z,1.80
2023-04-30T03:45:46.932Z,1.80
2023-04-30T03:48:13.683Z,1.70
2023-04-30T03:50:40.812Z,1.70
2023-04-30T03:53:07.441Z,1.70
2023-04-30T03:55:35.504Z,1.80
2023-04-30T03:58:02.429Z,1.80
2023-04-30T04:00:29.195Z,1.80
2023-04-30T04:02:58.155Z,1.90
2023-04-30T04:05:25.124Z,1.80
2023-04-30T04:07:51.793Z,1.70
2023-04-30T04:10:18.800Z,1.60
2023-04-30T04:12:46.444Z,1.80
2023-04-30T04:15:13.196Z,1.80
2023-04-30T04:17:40.079Z,1.70
2023-04-30T04:20:08.198Z,1.70
2023-04-30T04:22:36.148Z,1.60
2023-04-30T04:25:03.049Z,1.50
2023-04-30T04:27:31.802Z,1.50
2023-04-30T04:29:58.427Z,1.50
2023-04-30T04:32:25.761Z,1.50
2023-04-30T04:34:54.212Z,1.50
2023-04-30T04:37:20.917Z,1.50
2023-04-30T04:39:47.690Z,1.50
2023-04-30T04:42:20.416Z,1.60
2023-04-30T04:44:47.518Z,1.50
2023-04-30T04:47:14.147Z,1.50
2023-04-30T04:49:41.292Z,1.50
2023-04-30T04:52:09.229Z,1.60
2023-04-30T04:54:35.827Z,1.80
2023-04-30T04:57:02.951Z,1.70
2023-04-30T04:59:29.961Z,1.80
2023-04-30T05:01:57.152Z,1.90
2023-04-30T05:04:24.072Z,2.00
2023-04-30T05:06:50.762Z,2.10
2023-04-30T05:09:17.628Z,2.20
2023-04-30T05:11:46.062Z,2.30
2023-04-30T05:14:12.744Z,2.30
2023-04-30T05:16:39.695Z,2.50
2023-04-30T05:19:07.027Z,2.50
2023-04-30T05:21:33.676Z,2.60
2023-04-30T05:24:00.521Z,2.60
2023-04-30T05:26:27.157Z,2.60
2023-04-30T05:28:53.808Z,2.70
2023-04-30T05:31:20.999Z,2.70
2023-04-30T05:33:48.182Z,2.90
2023-04-30T05:36:14.831Z,3.10
2023-04-30T05:38:41.831Z,3.20
2023-04-30T05:41:13.760Z,3.30
2023-04-30T05:43:40.607Z,3.40
2023-04-30T05:46:07.252Z,3.60
2023-04-30T05:48:33.986Z,3.60
2023-04-30T05:51:00.801Z,3.60
2023-04-30T05:53:27.606Z,3.70
2023-04-30T05:55:54.284Z,3.80
2023-04-30T05:58:20.930Z,4.10
2023-04-30T06:00:50.739Z,4.20
2023-04-30T06:03:18.304Z,4.50
2023-04-30T06:05:45.496Z,4.80
2023-04-30T06:08:12.230Z,4.90
2023-04-30T06:10:39.227Z,5.20
2023-04-30T06:13:06.360Z,5.40
2023-04-30T06:15:33.409Z,5.60
2023-04-30T06:18:00.124Z,5.80
2023-04-30T06:20:29.892Z,6.00
2023-04-30T06:22:56.551Z,6.30
2023-04-30T06:25:23.232Z,6.50
2023-04-30T06:27:51.548Z,6.80
2023-04-30T06:30:18.184Z,6.90
2023-04-30T06:32:44.820Z,7.10
2023-04-30T06:35:11.582Z,7.20
2023-04-30T06:37:38.330Z,7.40
2023-04-30T06:40:06.402Z,7.40
2023-04-30T06:42:36.295Z,7.60
2023-04-30T06:45:03.797Z,7.40
2023-04-30T06:47:34.552Z,7.60
2023-04-30T06:50:01.893Z,7.80
2023-04-30T06:52:28.904Z,8.20
2023-04-30T06:54:55.525Z,8.50
2023-04-30T06:57:22.341Z,8.20
2023-04-30T06:59:49.023Z,7.90
2023-04-30T07:02:16.467Z,8.00
2023-04-30T07:04:43.125Z,8.40
2023-04-30T07:07:10.006Z,8.20
2023-04-30T07:09:36.824Z,8.20
2023-04-30T07:12:03.777Z,8.60
2023-04-30T07:14:30.407Z,9.10
2023-04-30T07:16:57.063Z,8.90
2023-04-30T07:19:25.257Z,8.90
2023-04-30T07:21:51.890Z,9.00
2023-04-30T07:24:18.471Z,9.50
2023-04-30T07:26:45.420Z,9.60
2023-04-30T07:29:12.068Z,9.80
2023-04-30T07:31:38.715Z,9.80
2023-04-30T07:34:05.383Z,9.90
2023-04-30T07:36:32.447Z,10.40
2023-04-30T07:38:59.064Z,9.60
2023-04-30T07:41:26.204Z,9.50
2023-04-30T07:43:53.111Z,9.00
2023-04-30T07:46:19.798Z,9.30
2023-04-30T07:48:46.499Z,9.60
2023-04-30T07:51:13.092Z,9.40
2023-04-30T07:53:39.710Z,9.90
2023-04-30T07:56:07.266Z,10.90
2023-04-30T07:58:34.264Z,10.30
2023-04-30T08:01:00.940Z,9.80
2023-04-30T08:03:27.739Z,10.20
2023-04-30T08:05:54.885Z,11.10
2023-04-30T08:08:21.608Z,10.20
2023-04-30T08:10:48.204Z,10.00
2023-04-30T08:13:15.386Z,9.70
2023-04-30T08:15:42.341Z,9.50
2023-04-30T08:18:09.697Z,9.80
2023-04-30T08:20:38.021Z,10.50
2023-04-30T08:23:05.726Z,11.40
2023-04-30T08:25:32.779Z,11.60
2023-04-30T08:27:59.654Z,11.80
2023-04-30T08:30:26.397Z,12.00
2023-04-30T08:32:55.331Z,12.20
2023-04-30T08:35:23.519Z,12.30
2023-04-30T08:37:50.374Z,12.50
2023-04-30T08:40:17.372Z,12.50
2023-04-30T08:42:49.620Z,12.00
2023-04-30T08:45:16.456Z,12.50
2023-04-30T08:47:44.769Z,13.30
2023-04-30T08:50:11.873Z,13.50
2023-04-30T08:52:40.120Z,13.30
2023-04-30T08:55:11.129Z,12.60
2023-04-30T08:57:38.602Z,12.20
2023-04-30T09:00:06.936Z,13.00
2023-04-30T09:02:34.733Z,13.60
2023-04-30T09:05:01.631Z,14.00
2023-04-30T09:07:33.564Z,14.60
2023-04-30T09:10:00.716Z,14.70
2023-04-30T09:12:27.432Z,15.00
2023-04-30T09:15:05.391Z,15.00
2023-04-30T09:17:33.163Z,14.80
2023-04-30T09:20:13.953Z,14.80
2023-04-30T09:22:42.231Z,14.30
2023-04-30T09:25:11.136Z,14.50
2023-04-30T09:27:37.826Z,14.10
2023-04-30T09:30:05.834Z,14.60
2023-04-30T09:32:32.579Z,14.60
2023-04-30T09:34:59.436Z,14.40
2023-04-30T09:37:39.356Z,15.00
2023-04-30T09:40:06.709Z,15.50
2023-04-30T09:42:33.384Z,15.50
2023-04-30T09:45:00.032Z,13.80
2023-04-30T09:47:31.787Z,13.40
2023-04-30T09:50:00.090Z,13.40
2023-04-30T09:52:26.930Z,14.00
2023-04-30T09:54:53.998Z,14.10
2023-04-30T09:57:23.850Z,14.70
2023-04-30T09:59:53.171Z,15.00
2023-04-30T10:02:23.257Z,14.90
2023-04-30T10:04:57.904Z,14.70
2023-04-30T10:07:29.922Z,14.40
2023-04-30T10:10:07.359Z,14.40
2023-04-30T10:12:56.295Z,13.80
2023-04-30T10:15:28.782Z,13.90
2023-04-30T10:18:02.679Z,13.90
2023-04-30T10:20:31.381Z,14.60
2023-04-30T10:22:58.831Z,14.80
2023-04-30T10:25:26.943Z,14.90
2023-04-30T10:27:53.907Z,15.10
2023-04-30T10:30:22.182Z,15.50
2023-04-30T10:33:20.808Z,15.20
2023-04-30T10:35:47.443Z,15.20
2023-04-30T10:38:25.293Z,14.90
2023-04-30T10:40:57.154Z,15.00
2023-04-30T10:43:29.709Z,15.50
2023-04-30T10:45:58.596Z,15.80
2023-04-30T10:48:26.763Z,15.80
2023-04-30T10:50:56.449Z,15.90
2023-04-30T10:53:25.939Z,16.00
2023-04-30T10:56:06.785Z,16.30
2023-04-30T10:58:38.785Z,15.60
2023-04-30T11:01:10.697Z,16.10
2023-04-30T11:03:38.607Z,16.40
2023-04-30T11:06:19.833Z,16.60
2023-04-30T11:08:47.174Z,16.70
2023-04-30T11:11:23.700Z,16.90
2023-04-30T11:14:01.003Z,17.10
2023-04-30T11:16:31.651Z,16.50
2023-04-30T11:19:11.634Z,15.90
2023-04-30T11:21:42.495Z,16.00
2023-04-30T11:24:09.137Z,16.40
2023-04-30T11:27:05.778Z,16.30
2023-04-30T11:29:32.836Z,15.10
2023-04-30T11:32:04.910Z,15.50
2023-04-30T11:34:31.615Z,15.70
2023-04-30T11:37:00.888Z,15.50
2023-04-30T11:39:29.598Z,15.20
2023-04-30T11:41:56.259Z,15.30
2023-04-30T11:44:27.712Z,15.50
2023-04-30T11:46:54.830Z,15.60
2023-04-30T11:49:21.572Z,15.90
2023-04-30T11:51:50.266Z,16.20
2023-04-30T11:54:18.355Z,16.10
2023-04-30T11:56:49.110Z,16.30
2023-04-30T11:59:17.315Z,16.30
2023-04-30T12:01:44.103Z,16.60
2023-04-30T12:04:10.983Z,15.50
2023-04-30T12:06:37.931Z,15.30
2023-04-30T12:09:08.872Z,16.00
2023-04-30T12:11:35.848Z,15.90
2023-04-30T12:14:04.028Z,15.50
2023-04-30T12:16:50.865Z,15.10
2023-04-30T12:19:19.436Z,15.70
2023-04-30T12:21:48.304Z,15.40
2023-04-30T12:24:16.983Z,15.30
2023-04-30T12:26:44.221Z,15.50
2023-04-30T12:29:15.822Z,15.40
2023-04-30T12:31:43.479Z,14.70
2023-04-30T12:34:14.542Z,14.80
2023-04-30T12:36:44.840Z,15.30
2023-04-30T12:39:12.752Z,15.80
2023-04-30T12:41:44.968Z,15.20
2023-04-30T12:44:25.438Z,15.40
2023-04-30T12:46:56.165Z,15.90
2023-04-30T12:49:27.363Z,15.80
2023-04-30T12:52:04.032Z,16.10
2023-04-30T12:54:32.579Z,15.70
2023-04-30T12:57:03.713Z,15.90
2023-04-30T12:59:32.192Z,16.20
2023-04-30T13:02:09.041Z,16.10
2023-04-30T13:04:36.438Z,15.80
2023-04-30T13:07:04.401Z,15.90
2023-04-30T13:09:41.015Z,15.80
2023-04-30T13:12:08.264Z,15.30
2023-04-30T13:14:35.554Z,15.10
2023-04-30T13:17:05.579Z,15.70
2023-04-30T13:19:32.421Z,15.90
2023-04-30T13:22:00.210Z,16.20
2023-04-30T13:24:26.913Z,16.20
2023-04-30T13:26:53.848Z,16.70
2023-04-30T13:29:20.917Z,16.50
2023-04-30T13:31:48.998Z,15.90
2023-04-30T13:34:15.912Z,16.00
2023-04-30T13:36:42.659Z,16.30
2023-04-30T13:39:09.236Z,16.10
2023-04-30T13:41:35.915Z,16.10
2023-04-30T13:44:02.895Z,16.00
2023-04-30T13:46:30.467Z,15.60
2023-04-30T13:48:57.154Z,16.00
2023-04-30T13:51:23.813Z,16.20
2023-04-30T13:53:50.517Z,16.30
2023-04-30T13:56:17.169Z,16.30
2023-04-30T13:58:44.015Z,16.20
2023-04-30T14:01:10.759Z,16.40
2023-04-30T14:03:37.761Z,16.40
2023-04-30T14:06:05.748Z,15.80
2023-04-30T14:08:33.576Z,15.70
2023-04-30T14:11:00.285Z,15.70
2023-04-30T14:13:26.883Z,15.90
2023-04-30T14:15:54.588Z,15.80
2023-04-30T14:18:22.711Z,15.70
2023-04-30T14:20:49.955Z,15.40
2023-04-30T14:23:16.574Z,15.70
2023-04-30T14:25:44.130Z,15.90
2023-04-30T14:28:11.704Z,16.00
2023-04-30T14:30:38.363Z,16.60
2023-04-30T14:33:05.426Z,16.20
2023-04-30T14:35:33.405Z,15.70
2023-04-30T14:37:59.992Z,15.20
2023-04-30T14:40:26.647Z,15.40
2023-04-30T14:42:53.258Z,15.40
2023-04-30T14:45:19.944Z,15.60
2023-04-30T14:47:46.728Z,15.50
2023-04-30T14:50:13.923Z,15.80
2023-04-30T14:52:41.968Z,16.10
2023-04-30T14:55:09.040Z,16.10
2023-04-30T14:57:36.280Z,16.30
2023-04-30T15:00:03.224Z,16.20
2023-04-30T15:02:30.094Z,15.70
2023-04-30T15:04:57.467Z,15.50
2023-04-30T15:07:24.125Z,15.80
2023-04-30T15:09:51.913Z,16.10
2023-04-30T15:12:18.504Z,16.20
2023-04-30T15:14:45.142Z,16.30
2023-04-30T15:17:11.853Z,16.60
2023-04-30T15:19:38.531Z,16.10
2023-04-30T15:22:06.772Z,16.10
2023-04-30T15:24:34.196Z,15.70
2023-04-30T15:27:00.812Z,16.10
2023-04-30T15:29:27.516Z,16.40
2023-04-30T15:31:54.477Z,16.20
2023-04-30T15:34:22.420Z,15.60
2023-04-30T15:36:52.144Z,15.30
2023-04-30T15:39:19.068Z,15.50
2023-04-30T15:41:45.799Z,15.80
2023-04-30T15:44:12.390Z,15.90
2023-04-30T15:46:39.054Z,16.10
2023-04-30T15:49:05.718Z,15.90
2023-04-30T15:51:32.958Z,15.80
2023-04-30T15:53:59.705Z,15.60
2023-04-30T15:56:26.632Z,15.50
2023-04-30T15:58:53.933Z,15.50
2023-04-30T16:01:20.969Z,15.40
2023-04-30T16:03:48.087Z,15.10
2023-04-30T16:06:16.073Z,15.20
2023-04-30T16:08:43.962Z,15.10
2023-04-30T16:11:11.564Z,15.20
2023-04-30T16:13:38.238Z,15.10
2023-04-30T16:16:05.474Z,15.00
2023-04-30T16:18:32.161Z,15.20
2023-04-30T16:20:58.872Z,15.20
2023-04-30T16:23:25.494Z,15.10
2023-04-30T16:25:52.085Z,15.10
2023-04-30T16:28:18.735Z,15.20
2023-04-30T16:30:45.464Z,15.00
2023-04-30T16:33:12.051Z,15.00
2023-04-30T16:35:38.700Z,15.10
2023-04-30T16:38:05.485Z,15.30
2023-04-30T16:40:33.491Z,15.20
2023-04-30T16:43:00.518Z,14.70
2023-04-30T16:45:27.289Z,14.70
2023-04-30T16:47:53.958Z,14.80
2023-04-30T16:50:20.794Z,14.90
2023-04-30T16:52:47.858Z,14.90
2023-04-30T16:55:14.472Z,14.70
2023-04-30T16:57:41.529Z,14.40
2023-04-30T17:00:11.317Z,14.30
2023-04-30T17:02:39.768Z,14.50
2023-04-30T17:05:07.267Z,14.60
2023-04-30T17:07:33.872Z,14.50
2023-04-30T17:10:00.626Z,14.30
2023-04-30T17:12:27.478Z,14.30
2023-04-30T17:14:54.145Z,14.40
2023-04-30T17:17:20.793Z,14.40
2023-04-30T17:19:47.408Z,14.30
2023-04-30T17:22:15.969Z,14.30
2023-04-30T17:24:42.613Z,14.40
2023-04-30T17:27:09.911Z,14.30
2023-04-30T17:29:36.497Z,14.20
2023-04-30T17:32:04.334Z,14.20
2023-04-30T17:34:31.269Z,13.90
2023-04-30T17:36:57.985Z,13.70
2023-04-30T17:39:25.141Z,13.70
2023-04-30T17:41:51.777Z,13.70
2023-04-30T17:44:19.283Z,13.70
2023-04-30T17:46:46.126Z,13.70
2023-04-30T17:49:12.948Z,13.70
2023-04-30T17:51:39.574Z,13.60
2023-04-30T17:54:06.236Z,13.60
2023-04-30T17:56:33.405Z,13.60
2023-04-30T17:59:00.560Z,13.50
2023-04-30T18:01:27.478Z,13.50
2023-04-30T18:03:54.434Z,13.40
2023-04-30T18:06:21.284Z,13.30
2023-04-30T18:08:48.018Z,13.10
2023-04-30T18:11:14.672Z,13.00
2023-04-30T18:13:41.362Z,13.00
2023-04-30T18:16:08.359Z,12.90
2023-04-30T18:18:35.369Z,12.80
2023-04-30T18:21:03.669Z,12.80
2023-04-30T18:23:30.380Z,12.70
2023-04-30T18:25:57.328Z,12.70
2023-04-30T18:28:24.573Z,12.70
2023-04-30T18:30:51.512Z,12.60
2023-04-30T18:33:18.222Z,12.50
2023-04-30T18:35:49.652Z,12.40
2023-04-30T18:38:16.335Z,12.30
2023-04-30T18:40:43.435Z,12.20
2023-04-30T18:43:10.118Z,12.10
2023-04-30T18:45:36.728Z,12.00
2023-04-30T18:48:04.125Z,11.90
2023-04-30T18:50:30.782Z,11.90
2023-04-30T18:52:57.375Z,11.70
2023-04-30T18:55:24.040Z,11.60
2023-04-30T18:57:50.727Z,11.40
2023-04-30T19:00:17.348Z,11.20
2023-04-30T19:02:44.619Z,11.00
2023-04-30T19:05:11.271Z,10.90
2023-04-30T19:07:37.914Z,10.80
2023-04-30T19:10:05.332Z,10.70
2023-04-30T19:12:32.213Z,10.70
2023-04-30T19:14:58.949Z,10.60
2023-04-30T19:17:25.650Z,10.60
2023-04-30T19:19:52.961Z,10.60
2023-04-30T19:22:19.950Z,10.50
2023-04-30T19:24:46.559Z,10.50
2023-04-30T19:27:13.176Z,10.50
2023-04-30T19:29:39.906Z,10.50
2023-04-30T19:32:06.881Z,10.40
2023-04-30T19:34:34.380Z,10.40
2023-04-30T19:37:00.996Z,10.30
2023-04-30T19:39:31.586Z,10.20
2023-04-30T19:41:58.791Z,10.10
2023-04-30T19:44:25.769Z,10.10
2023-04-30T19:46:52.436Z,10.10
2023-04-30T19:49:19.062Z,10.00
2023-04-30T19:51:45.748Z,10.00
2023-04-30T19:54:14.081Z,10.00
2023-04-30T19:56:44.381Z,9.90
2023-04-30T19:59:11.178Z,9.90
2023-04-30T20:01:38.325Z,9.90
2023-04-30T20:04:05.698Z,9.70
2023-04-30T20:06:32.824Z,9.70
2023-04-30T20:09:00.645Z,9.70
2023-04-30T20:11:27.764Z,9.60
2023-04-30T20:13:55.201Z,9.60
2023-04-30T20:16:22.104Z,9.60
2023-04-30T20:18:48.961Z,9.60
2023-04-30T20:21:17.072Z,9.50
2023-04-30T20:23:45.957Z,9.40
2023-04-30T20:26:13.092Z,9.40
2023-04-30T20:28:39.775Z,9.40
2023-04-30T20:31:07.222Z,9.30
2023-04-30T20:33:33.972Z,9.30
2023-04-30T20:36:02.387Z,9.30
2023-04-30T20:38:29.625Z,9.20
2023-04-30T20:40:58.800Z,9.20
2023-04-30T20:43:25.487Z,9.10
2023-04-30T20:45:52.169Z,9.00
2023-04-30T20:48:18.920Z,8.80
2023-04-30T20:50:45.942Z,8.80
2023-04-30T20:53:14.058Z,8.60
2023-04-30T20:55:41.059Z,8.50
2023-04-30T20:58:08.893Z,8.40
2023-04-30T21:00:36.074Z,8.40
2023-04-30T21:03:02.917Z,8.30
2023-04-30T21:05:30.040Z,8.20
2023-04-30T21:08:00.938Z,8.00
2023-04-30T21:10:34.914Z,7.90
2023-04-30T21:13:03.404Z,7.80
2023-04-30T21:15:30.708Z,7.60
2023-04-30T21:17:58.328Z,7.60
2023-04-30T21:20:25.685Z,7.60
2023-04-30T21:22:54.831Z,7.60
2023-04-30T21:25:21.955Z,7.50
2023-04-30T21:27:48.861Z,7.40
2023-04-30T21:30:16.976Z,7.40
2023-04-30T21:32:49.545Z,7.40
2023-04-30T21:35:16.345Z,7.20
2023-04-30T21:37:43.183Z,7.10
2023-04-30T21:40:10.650Z,7.10
2023-04-30T21:42:37.349Z,7.20
2023-04-30T21:45:04.701Z,7.10
2023-04-30T21:47:31.635Z,7.10
2023-04-30T21:49:59.066Z,7.00
2023-04-30T21:52:26.016Z,6.90
2023-04-30T21:54:52.909Z,6.80
2023-04-30T21:57:19.628Z,6.80
2023-04-30T21:59:46.340Z,6.70
2023-04-30T22:04:47.434Z,6.60
2023-04-30T22:07:14.169Z,6.60
2023-04-30T22:09:40.954Z,6.50
2023-04-30T22:12:09.060Z,6.60
2023-04-30T22:14:35.761Z,6.60
2023-04-30T22:17:02.418Z,6.60
2023-04-30T22:19:29.085Z,6.60
2023-04-30T22:21:55.792Z,6.50
2023-04-30T22:24:22.403Z,6.60
2023-04-30T22:26:49.518Z,6.60
2023-04-30T22:29:16.279Z,6.60
2023-04-30T22:31:43.006Z,6.70
2023-04-30T22:34:09.859Z,6.70
2023-04-30T22:36:36.913Z,6.70
2023-04-30T22:39:03.961Z,6.60
2023-04-30T22:41:30.748Z,6.50
2023-04-30T22:43:57.345Z,6.50
2023-04-30T22:46:24.081Z,6.40
2023-04-30T22:48:50.891Z,6.40
2023-04-30T22:51:18.036Z,6.30
2023-04-30T22:53:44.899Z,6.20
2023-04-30T22:56:11.597Z,6.20
2023-04-30T22:58:38.175Z,6.00
2023-04-30T23:01:05.146Z,5.90
2023-04-30T23:03:31.832Z,5.90
2023-04-30T23:06:01.797Z,5.80
2023-04-30T23:08:28.500Z,5.70
2023-04-30T23:10:55.533Z,5.80
2023-04-30T23:13:22.722Z,5.70
2023-04-30T23:15:49.560Z,5.60
2023-04-30T23:18:17.373Z,5.50
2023-04-30T23:20:44.013Z,5.50
2023-04-30T23:23:10.600Z,5.50
2023-04-30T23:25:37.833Z,5.50
2023-04-30T23:28:04.867Z,5.50
2023-04-30T23:30:32.489Z,5.50
2023-04-30T23:32:59.116Z,5.50
2023-04-30T23:35:25.827Z,5.50
2023-04-30T23:37:52.406Z,5.50
2023-04-30T23:40:19.867Z,5.40
2023-04-30T23:42:46.486Z,5.30
2023-04-30T23:45:13.145Z,5.30
2023-04-30T23:47:39.847Z,5.30
2023-04-30T23:50:07.156Z,5.30
2023-04-30T23:52:35.627Z,5.30
2023-04-30T23:55:02.873Z,5.40
2023-04-30T23:57:29.549Z,5.40
2023-04-30T23:59:56.580Z,5.50
